createdAt,value
2023-03-16T00:01:07.409Z,53.53
2023-03-16T00:03:36.843Z,54.10
2023-03-16T00:06:05.603Z,54.78
2023-03-16T00:08:35.071Z,54.34
2023-03-16T00:11:04.036Z,54.00
2023-03-16T00:13:32.894Z,55.11
2023-03-16T00:16:05.881Z,54.74
2023-03-16T00:18:41.468Z,54.94
2023-03-16T00:21:09.697Z,54.86
2023-03-16T00:23:38.306Z,54.96
2023-03-16T00:26:08.824Z,54.98
2023-03-16T00:28:37.574Z,55.18
2023-03-16T00:31:07.906Z,55.10
2023-03-16T00:33:36.073Z,55.41
2023-03-16T00:36:11.679Z,55.23
2023-03-16T00:38:45.616Z,55.40
2023-03-16T00:41:15.736Z,55.63
2023-03-16T00:43:45.682Z,55.34
2023-03-16T00:46:17.119Z,56.13
2023-03-16T00:48:47.725Z,56.21
2023-03-16T00:51:18.116Z,56.73
2023-03-16T00:53:47.114Z,56.58
2023-03-16T00:56:16.631Z,57.13
2023-03-16T00:58:44.968Z,57.40
2023-03-16T01:01:19.276Z,57.42
2023-03-16T01:03:49.153Z,57.85
2023-03-16T01:06:18.086Z,57.88
2023-03-16T01:08:46.345Z,58.44
2023-03-16T01:11:17.637Z,58.20
2023-03-16T01:13:49.379Z,58.97
2023-03-16T01:16:23.607Z,58.49
2023-03-16T01:18:52.910Z,58.36
2023-03-16T01:21:22.055Z,58.47
2023-03-16T01:23:50.764Z,59.26
2023-03-16T01:26:19.426Z,58.65
2023-03-16T01:28:48.335Z,59.18
2023-03-16T01:31:17.277Z,58.37
2023-03-16T01:33:45.516Z,58.76
2023-03-16T01:36:16.662Z,59.08
2023-03-16T01:38:45.572Z,58.29
2023-03-16T01:41:14.771Z,58.52
2023-03-16T01:43:43.972Z,58.56
2023-03-16T01:46:27.835Z,58.41
2023-03-16T01:49:10.509Z,58.59
2023-03-16T01:51:52.240Z,59.69
2023-03-16T01:54:30.752Z,59.36
2023-03-16T01:57:07.876Z,59.32
2023-03-16T01:59:43.683Z,59.11
2023-03-16T02:02:14.802Z,59.09
2023-03-16T02:04:58.545Z,60.12
2023-03-16T02:07:29.415Z,59.97
2023-03-16T02:09:59.462Z,60.07
2023-03-16T02:12:27.752Z,60.06
2023-03-16T02:14:56.393Z,60.47
2023-03-16T02:17:27.958Z,60.05
2023-03-16T02:20:18.152Z,60.61
2023-03-16T02:22:49.772Z,59.91
2023-03-16T02:25:19.223Z,60.59
2023-03-16T02:28:13.840Z,59.88
2023-03-16T02:30:42.390Z,60.65
2023-03-16T02:33:12.293Z,61.31
2023-03-16T02:35:40.637Z,60.98
2023-03-16T02:38:10.204Z,60.66
2023-03-16T02:40:39.238Z,61.46
2023-03-16T02:43:16.109Z,61.54
2023-03-16T02:45:52.473Z,60.52
2023-03-16T02:48:56.984Z,61.22
2023-03-16T02:51:25.592Z,61.62
2023-03-16T02:53:54.983Z,61.24
2023-03-16T02:56:23.811Z,60.66
2023-03-16T02:58:52.382Z,61.52
2023-03-16T03:01:20.885Z,61.50
2023-03-16T03:03:49.781Z,61.05
2023-03-16T03:06:18.221Z,61.77
2023-03-16T03:08:46.585Z,61.72
2023-03-16T03:11:14.753Z,61.31
2023-03-16T03:13:44.847Z,62.15
2023-03-16T03:16:14.531Z,61.08
2023-03-16T03:18:43.264Z,61.99
2023-03-16T03:21:11.735Z,62.02
2023-03-16T03:23:41.222Z,61.58
2023-03-16T03:26:09.752Z,62.06
2023-03-16T03:28:38.820Z,62.65
2023-03-16T03:31:07.293Z,62.35
2023-03-16T03:33:35.886Z,62.26
2023-03-16T03:36:04.343Z,61.83
2023-03-16T03:38:34.225Z,61.66
2023-03-16T03:41:03.347Z,62.41
2023-03-16T03:43:31.714Z,63.04
2023-03-16T03:46:01.358Z,63.85
2023-03-16T03:48:31.884Z,63.01
2023-03-16T03:51:00.118Z,62.88
2023-03-16T03:53:29.303Z,63.42
2023-03-16T03:56:00.212Z,63.91
2023-03-16T03:58:28.359Z,63.00
2023-03-16T04:00:56.640Z,63.65
2023-03-16T04:03:25.252Z,64.25
2023-03-16T04:05:53.905Z,64.26
2023-03-16T04:08:22.092Z,63.93
2023-03-16T04:10:51.732Z,64.37
2023-03-16T04:13:22.113Z,63.50
2023-03-16T04:15:57.084Z,63.83
2023-03-16T04:18:25.904Z,64.02
2023-03-16T04:20:54.691Z,63.15
2023-03-16T04:23:23.042Z,63.42
2023-03-16T04:25:52.124Z,64.23
2023-03-16T04:28:21.263Z,64.00
2023-03-16T04:30:54.847Z,64.07
2023-03-16T04:33:23.928Z,63.15
2023-03-16T04:35:52.598Z,63.52
2023-03-16T04:38:21.272Z,63.98
2023-03-16T04:40:50.346Z,64.05
2023-03-16T04:43:19.224Z,64.31
2023-03-16T04:45:47.734Z,65.19
2023-03-16T04:48:16.323Z,64.74
2023-03-16T04:50:44.675Z,65.17
2023-03-16T04:53:13.759Z,65.46
2023-03-16T04:55:42.622Z,65.17
2023-03-16T04:58:10.745Z,65.85
2023-03-16T05:00:41.085Z,65.63
2023-03-16T05:03:14.509Z,65.06
2023-03-16T05:05:42.909Z,65.51
2023-03-16T05:08:12.497Z,65.55
2023-03-16T05:10:41.085Z,65.23
2023-03-16T05:13:09.401Z,65.94
2023-03-16T05:15:38.452Z,66.12
2023-03-16T05:18:07.913Z,64.97
2023-03-16T05:20:36.280Z,65.41
2023-03-16T05:23:04.907Z,64.61
2023-03-16T05:25:34.786Z,65.24
2023-03-16T05:28:03.339Z,64.90
2023-03-16T05:30:32.185Z,64.40
2023-03-16T05:33:01.179Z,64.34
2023-03-16T05:35:29.640Z,64.66
2023-03-16T05:37:59.198Z,61.30
2023-03-16T05:40:28.531Z,55.35
2023-03-16T05:43:00.690Z,50.68
2023-03-16T05:45:30.225Z,46.58
2023-03-16T05:47:58.982Z,43.97
2023-03-16T05:50:28.973Z,42.62
2023-03-16T05:52:57.922Z,41.99
2023-03-16T05:55:26.356Z,39.63
2023-03-16T05:57:54.905Z,37.56
2023-03-16T06:00:26.170Z,35.86
2023-03-16T06:02:55.783Z,34.88
2023-03-16T06:05:28.760Z,34.39
2023-03-16T06:07:57.880Z,35.34
2023-03-16T06:10:27.120Z,34.72
2023-03-16T06:12:55.545Z,35.85
2023-03-16T06:15:27.138Z,38.13
2023-03-16T06:17:57.176Z,42.22
2023-03-16T06:20:26.129Z,44.07
2023-03-16T06:22:55.751Z,46.40
2023-03-16T06:25:24.444Z,47.59
2023-03-16T06:27:53.624Z,48.47
2023-03-16T06:30:22.116Z,48.62
2023-03-16T06:32:53.504Z,50.13
2023-03-16T06:35:22.214Z,48.03
2023-03-16T06:37:50.760Z,47.97
2023-03-16T06:40:22.312Z,46.09
2023-03-16T06:42:51.530Z,45.53
2023-03-16T06:45:22.512Z,45.21
2023-03-16T06:47:51.631Z,46.13
2023-03-16T06:50:19.871Z,45.99
2023-03-16T06:52:48.278Z,47.78
2023-03-16T06:55:17.310Z,48.09
2023-03-16T06:57:46.177Z,48.09
2023-03-16T07:00:15.936Z,46.63
2023-03-16T07:02:49.298Z,47.29
2023-03-16T07:05:20.006Z,48.77
2023-03-16T07:07:49.123Z,49.36
2023-03-16T07:10:19.967Z,49.80
2023-03-16T07:12:50.890Z,50.48
2023-03-16T07:15:20.144Z,49.94
2023-03-16T07:17:50.473Z,49.82
2023-03-16T07:20:20.437Z,50.33
2023-03-16T07:22:49.744Z,49.67
2023-03-16T07:25:23.017Z,50.15
2023-03-16T07:27:51.852Z,49.18
2023-03-16T07:30:21.316Z,50.09
2023-03-16T07:32:50.204Z,50.54
2023-03-16T07:35:22.790Z,49.68
2023-03-16T07:37:51.136Z,49.43
2023-03-16T07:40:20.071Z,49.27
2023-03-16T07:42:48.609Z,47.86
2023-03-16T07:45:18.274Z,45.73
2023-03-16T07:47:47.433Z,46.72
2023-03-16T07:50:17.188Z,46.30
2023-03-16T07:52:47.431Z,43.70
2023-03-16T07:55:16.331Z,44.31
2023-03-16T07:57:48.248Z,45.19
2023-03-16T08:00:20.742Z,44.78
2023-03-16T08:02:52.308Z,43.86
2023-03-16T08:05:20.497Z,44.60
2023-03-16T08:07:49.307Z,45.25
2023-03-16T08:10:19.014Z,45.57
2023-03-16T08:12:48.102Z,45.70
2023-03-16T08:15:20.101Z,44.98
2023-03-16T08:17:49.122Z,44.66
2023-03-16T08:20:26.097Z,45.13
2023-03-16T08:22:57.147Z,43.94
2023-03-16T08:25:25.616Z,43.69
2023-03-16T08:27:54.286Z,42.86
2023-03-16T08:30:23.150Z,42.75
2023-03-16T08:32:52.590Z,42.18
2023-03-16T08:35:20.838Z,42.99
2023-03-16T08:37:49.813Z,41.62
2023-03-16T08:40:18.599Z,41.64
2023-03-16T08:42:52.090Z,41.84
2023-03-16T08:45:20.787Z,40.80
2023-03-16T08:47:52.097Z,41.40
2023-03-16T08:50:21.299Z,41.45
2023-03-16T08:52:51.131Z,40.87
2023-03-16T08:55:19.385Z,40.68
2023-03-16T08:57:49.204Z,39.47
2023-03-16T09:00:18.239Z,38.12
2023-03-16T09:02:47.257Z,39.70
2023-03-16T09:05:18.562Z,38.20
2023-03-16T09:07:48.994Z,37.41
2023-03-16T09:10:20.105Z,35.77
2023-03-16T09:12:48.340Z,36.07
2023-03-16T09:15:16.740Z,35.10
2023-03-16T09:17:47.357Z,34.06
2023-03-16T09:20:35.006Z,35.38
2023-03-16T09:23:06.135Z,34.76
2023-03-16T09:26:06.241Z,35.79
2023-03-16T09:28:52.898Z,35.66
2023-03-16T09:31:21.740Z,35.08
2023-03-16T09:33:54.173Z,34.01
2023-03-16T09:36:22.405Z,33.46
2023-03-16T09:38:50.735Z,32.41
2023-03-16T09:41:42.126Z,31.56
2023-03-16T09:44:38.589Z,29.93
2023-03-16T09:47:15.813Z,30.99
2023-03-16T09:49:49.692Z,30.33
2023-03-16T09:52:32.131Z,28.48
2023-03-16T09:55:07.910Z,28.73
2023-03-16T09:57:40.854Z,29.39
2023-03-16T10:00:22.225Z,29.53
2023-03-16T10:02:58.163Z,28.33
2023-03-16T10:05:27.606Z,27.05
2023-03-16T10:07:58.953Z,27.49
2023-03-16T10:10:55.574Z,28.05
2023-03-16T10:13:44.146Z,27.81
2023-03-16T10:16:17.922Z,26.53
2023-03-16T10:18:53.181Z,26.71
2023-03-16T10:21:21.597Z,25.56
2023-03-16T10:23:52.366Z,23.95
2023-03-16T10:26:28.961Z,23.89
2023-03-16T10:29:04.035Z,22.91
2023-03-16T10:31:35.732Z,22.73
2023-03-16T10:34:06.308Z,22.65
2023-03-16T10:36:42.319Z,21.13
2023-03-16T10:39:16.604Z,20.76
2023-03-16T10:41:47.214Z,21.28
2023-03-16T10:44:27.005Z,21.01
2023-03-16T10:47:06.791Z,21.17
2023-03-16T10:49:44.673Z,20.65
2023-03-16T10:52:24.237Z,21.19
2023-03-16T10:55:01.637Z,20.78
2023-03-16T10:57:31.254Z,19.92
2023-03-16T11:00:21.183Z,19.16
2023-03-16T11:02:51.494Z,18.99
2023-03-16T11:05:21.712Z,19.33
2023-03-16T11:08:13.404Z,20.00
2023-03-16T11:10:55.994Z,21.17
2023-03-16T11:13:39.300Z,21.50
2023-03-16T11:16:23.425Z,21.08
2023-03-16T11:18:55.880Z,20.03
2023-03-16T11:21:38.843Z,20.18
2023-03-16T11:24:17.292Z,19.93
2023-03-16T11:26:48.870Z,19.19
2023-03-16T11:29:29.500Z,18.63
2023-03-16T11:32:06.025Z,18.04
2023-03-16T11:34:40.291Z,18.28
2023-03-16T11:37:08.892Z,17.16
2023-03-16T11:40:02.344Z,17.81
2023-03-16T11:42:57.147Z,18.64
2023-03-16T11:45:33.063Z,17.26
2023-03-16T11:48:14.111Z,16.74
2023-03-16T11:50:50.261Z,17.37
2023-03-16T11:53:57.651Z,17.65
2023-03-16T11:56:36.244Z,18.14
2023-03-16T11:59:34.489Z,18.52
2023-03-16T12:02:25.937Z,18.69
2023-03-16T12:05:23.493Z,18.98
2023-03-16T12:07:59.272Z,19.78
2023-03-16T12:10:42.171Z,20.98
2023-03-16T12:13:16.306Z,22.33
2023-03-16T12:15:51.909Z,22.29
2023-03-16T12:18:36.440Z,21.97
2023-03-16T12:21:10.021Z,23.62
2023-03-16T12:23:57.319Z,23.46
2023-03-16T12:26:32.324Z,22.94
2023-03-16T12:29:29.719Z,22.64
2023-03-16T12:32:10.277Z,23.19
2023-03-16T12:34:56.805Z,22.44
2023-03-16T12:38:01.453Z,22.96
2023-03-16T12:40:44.318Z,22.92
2023-03-16T12:43:45.143Z,23.85
2023-03-16T12:46:25.071Z,23.05
2023-03-16T12:48:58.865Z,23.53
2023-03-16T12:51:41.721Z,24.09
2023-03-16T12:54:35.966Z,23.35
2023-03-16T12:57:09.961Z,23.49
2023-03-16T12:59:46.017Z,23.83
2023-03-16T13:02:20.469Z,23.86
2023-03-16T13:05:00.419Z,24.30
2023-03-16T13:07:31.415Z,24.79
2023-03-16T13:10:16.403Z,24.61
2023-03-16T13:12:46.497Z,26.31
2023-03-16T13:15:24.375Z,25.33
2023-03-16T13:18:10.688Z,24.82
2023-03-16T13:23:32.553Z,24.52
2023-03-16T13:26:20.163Z,24.95
2023-03-16T13:28:54.389Z,25.85
2023-03-16T13:31:41.939Z,25.73
2023-03-16T13:34:16.397Z,25.81
2023-03-16T13:36:48.138Z,25.94
2023-03-16T13:39:19.289Z,24.59
2023-03-16T13:41:59.854Z,25.50
2023-03-16T13:44:30.382Z,26.48
2023-03-16T13:47:05.411Z,24.58
2023-03-16T13:49:34.568Z,24.71
2023-03-16T13:52:06.179Z,25.88
2023-03-16T13:54:37.643Z,25.56
2023-03-16T13:57:09.934Z,25.75
2023-03-16T13:59:38.373Z,26.19
2023-03-16T14:02:20.998Z,25.10
2023-03-16T14:04:51.379Z,26.50
2023-03-16T14:07:21.584Z,26.09
2023-03-16T14:09:50.903Z,24.80
2023-03-16T14:12:20.572Z,25.39
2023-03-16T14:14:51.206Z,24.70
2023-03-16T14:17:24.376Z,25.09
2023-03-16T14:19:57.311Z,25.08
2023-03-16T14:22:33.463Z,25.22
2023-03-16T14:25:02.057Z,24.86
2023-03-16T14:27:39.662Z,25.47
2023-03-16T14:30:24.486Z,25.48
2023-03-16T14:33:04.625Z,25.69
2023-03-16T14:35:41.076Z,25.85
2023-03-16T14:38:40.424Z,25.38
2023-03-16T14:41:27.728Z,25.60
2023-03-16T14:43:59.387Z,26.88
2023-03-16T14:46:35.757Z,25.25
2023-03-16T14:49:10.996Z,25.10
2023-03-16T14:51:42.490Z,26.20
2023-03-16T14:54:16.605Z,26.33
2023-03-16T14:56:49.606Z,26.83
2023-03-16T14:59:18.648Z,25.80
2023-03-16T15:01:47.584Z,25.55
2023-03-16T15:04:19.831Z,25.96
2023-03-16T15:06:48.655Z,25.59
2023-03-16T15:09:38.305Z,25.25
2023-03-16T15:12:18.345Z,25.84
2023-03-16T15:15:06.663Z,26.13
2023-03-16T15:17:35.413Z,26.79
2023-03-16T15:20:05.764Z,27.02
2023-03-16T15:22:38.161Z,26.83
2023-03-16T15:25:22.347Z,27.00
2023-03-16T15:27:52.976Z,27.57
2023-03-16T15:30:27.557Z,27.74
2023-03-16T15:32:57.137Z,27.13
2023-03-16T15:35:25.741Z,27.09
2023-03-16T15:37:55.530Z,26.86
2023-03-16T15:40:29.310Z,27.08
2023-03-16T15:42:59.500Z,26.94
2023-03-16T15:45:28.893Z,28.26
2023-03-16T15:47:57.186Z,28.13
2023-03-16T15:50:28.788Z,27.96
2023-03-16T15:53:04.457Z,28.16
2023-03-16T15:55:38.712Z,28.38
2023-03-16T15:58:08.513Z,28.86
2023-03-16T16:00:38.306Z,28.03
2023-03-16T16:03:09.526Z,27.66
2023-03-16T16:05:37.609Z,28.46
2023-03-16T16:08:06.262Z,27.82
2023-03-16T16:10:35.171Z,27.74
2023-03-16T16:13:03.330Z,28.11
2023-03-16T16:15:35.890Z,28.62
2023-03-16T16:18:39.968Z,28.41
2023-03-16T16:21:17.504Z,29.03
2023-03-16T16:23:48.295Z,29.27
2023-03-16T16:26:27.837Z,29.52
2023-03-16T16:29:01.079Z,30.11
2023-03-16T16:31:30.883Z,29.55
2023-03-16T16:33:59.858Z,30.43
2023-03-16T16:36:32.608Z,30.22
2023-03-16T16:39:01.270Z,30.75
2023-03-16T16:41:31.346Z,31.00
2023-03-16T16:44:05.515Z,30.80
2023-03-16T16:46:40.723Z,30.75
2023-03-16T16:49:19.853Z,31.79
2023-03-16T16:51:50.794Z,32.08
2023-03-16T16:54:23.913Z,32.13
2023-03-16T16:56:56.804Z,32.31
2023-03-16T16:59:33.490Z,32.94
2023-03-16T17:02:03.536Z,32.66
2023-03-16T17:04:32.167Z,33.29
2023-03-16T17:07:02.344Z,33.21
2023-03-16T17:09:31.281Z,32.76
2023-03-16T17:12:01.381Z,32.56
2023-03-16T17:14:31.674Z,32.90
2023-03-16T17:17:05.402Z,32.90
2023-03-16T17:19:33.793Z,33.11
2023-03-16T17:22:02.610Z,32.78
2023-03-16T17:24:31.618Z,32.97
2023-03-16T17:27:00.865Z,33.61
2023-03-16T17:29:34.346Z,34.19
2023-03-16T17:32:04.864Z,34.67
2023-03-16T17:34:34.691Z,34.16
2023-03-16T17:37:03.058Z,35.86
2023-03-16T17:39:35.619Z,35.59
2023-03-16T17:42:12.554Z,37.53
2023-03-16T17:44:41.888Z,38.05
2023-03-16T17:47:15.846Z,39.51
2023-03-16T17:49:49.050Z,39.63
2023-03-16T17:52:29.504Z,40.01
2023-03-16T17:54:58.512Z,40.43
2023-03-16T17:57:33.336Z,42.65
2023-03-16T18:00:04.673Z,42.21
2023-03-16T18:02:43.994Z,38.54
2023-03-16T18:05:30.575Z,40.51
2023-03-16T18:08:22.127Z,41.62
2023-03-16T18:10:57.225Z,43.46
2023-03-16T18:13:36.656Z,43.31
2023-03-16T18:16:08.721Z,45.50
2023-03-16T18:18:41.891Z,46.69
2023-03-16T18:21:22.126Z,46.37
2023-03-16T18:23:51.738Z,45.96
2023-03-16T18:26:22.169Z,45.51
2023-03-16T18:28:50.939Z,44.67
2023-03-16T18:31:21.795Z,46.44
2023-03-16T18:33:55.237Z,47.98
2023-03-16T18:36:43.307Z,50.22
2023-03-16T18:39:18.915Z,49.52
2023-03-16T18:41:47.427Z,51.20
2023-03-16T18:44:21.577Z,48.52
2023-03-16T18:46:51.446Z,49.67
2023-03-16T18:49:35.967Z,49.24
2023-03-16T18:52:04.595Z,52.57
2023-03-16T18:54:35.735Z,54.06
2023-03-16T18:57:06.627Z,52.91
2023-03-16T18:59:37.051Z,54.55
2023-03-16T19:02:06.927Z,54.68
2023-03-16T19:04:35.908Z,54.08
2023-03-16T19:07:05.843Z,54.17
2023-03-16T19:09:35.494Z,53.85
2023-03-16T19:12:04.502Z,53.28
2023-03-16T19:14:34.440Z,54.24
2023-03-16T19:17:02.672Z,54.88
2023-03-16T19:19:31.149Z,55.73
2023-03-16T19:22:07.747Z,54.52
2023-03-16T19:24:50.810Z,53.53
2023-03-16T19:27:25.813Z,52.26
2023-03-16T19:29:55.100Z,52.06
2023-03-16T19:32:23.456Z,48.84
2023-03-16T19:34:51.906Z,45.57
2023-03-16T19:37:21.068Z,45.50
2023-03-16T19:39:49.300Z,44.04
2023-03-16T19:42:29.056Z,45.43
2023-03-16T19:44:57.691Z,45.65
2023-03-16T19:47:31.395Z,45.03
2023-03-16T19:50:00.373Z,44.31
2023-03-16T19:52:31.206Z,47.54
2023-03-16T19:54:59.899Z,51.86
2023-03-16T19:57:29.344Z,49.27
2023-03-16T19:59:58.799Z,48.69
2023-03-16T20:02:28.760Z,51.82
2023-03-16T20:04:57.612Z,52.77
2023-03-16T20:07:26.335Z,54.30
2023-03-16T20:09:54.568Z,54.20
2023-03-16T20:12:30.744Z,51.83
2023-03-16T20:15:00.106Z,54.44
2023-03-16T20:17:30.190Z,55.89
2023-03-16T20:19:58.443Z,51.37
2023-03-16T20:22:28.841Z,50.41
2023-03-16T20:24:58.311Z,50.45
2023-03-16T20:27:28.146Z,51.44
2023-03-16T20:29:56.474Z,52.29
2023-03-16T20:32:33.576Z,50.04
2023-03-16T20:35:01.833Z,51.72
2023-03-16T20:37:31.616Z,51.52
2023-03-16T20:40:00.060Z,54.44
2023-03-16T20:42:33.360Z,52.90
2023-03-16T20:45:02.197Z,52.65
2023-03-16T20:47:30.963Z,54.01
2023-03-16T20:49:59.304Z,52.58
2023-03-16T20:52:30.815Z,52.84
2023-03-16T20:54:59.415Z,54.42
2023-03-16T20:57:29.890Z,54.32
2023-03-16T20:59:58.528Z,54.20
2023-03-16T21:02:29.722Z,54.00
2023-03-16T21:05:02.028Z,53.01
2023-03-16T21:07:30.669Z,52.62
2023-03-16T21:09:59.286Z,53.64
2023-03-16T21:12:30.905Z,51.92
2023-03-16T21:15:00.286Z,54.24
2023-03-16T21:17:36.500Z,55.31
2023-03-16T21:20:18.962Z,54.14
2023-03-16T21:22:47.650Z,56.83
2023-03-16T21:25:37.729Z,55.04
2023-03-16T21:28:05.990Z,56.19
2023-03-16T21:30:38.617Z,54.69
2023-03-16T21:33:19.215Z,54.37
2023-03-16T21:35:47.962Z,57.46
2023-03-16T21:38:19.663Z,56.00
2023-03-16T21:40:49.000Z,56.26
2023-03-16T21:43:17.486Z,58.12
2023-03-16T21:45:46.634Z,58.24
2023-03-16T21:48:25.575Z,57.20
2023-03-16T21:50:54.122Z,55.40
2023-03-16T21:53:28.982Z,57.43
2023-03-16T21:55:57.946Z,58.24
2023-03-16T21:58:27.634Z,58.31
2023-03-16T22:00:58.616Z,56.72
2023-03-16T22:03:44.231Z,56.60
2023-03-16T22:06:18.127Z,57.50
2023-03-16T22:08:46.801Z,56.98
2023-03-16T22:11:20.874Z,57.39
2023-03-16T22:13:50.450Z,58.37
2023-03-16T22:16:21.131Z,56.02
2023-03-16T22:18:52.244Z,54.81
2023-03-16T22:21:34.485Z,53.12
2023-03-16T22:24:05.707Z,53.03
2023-03-16T22:26:34.176Z,53.17
2023-03-16T22:29:14.543Z,56.93
2023-03-16T22:31:42.816Z,57.92
2023-03-16T22:34:31.773Z,56.88
2023-03-16T22:37:01.506Z,55.59
2023-03-16T22:39:38.329Z,57.90
2023-03-16T22:42:25.046Z,58.19
2023-03-16T22:44:57.654Z,58.32
2023-03-16T22:47:28.372Z,57.38
2023-03-16T22:49:57.078Z,58.71
2023-03-16T22:52:34.174Z,61.67
2023-03-16T22:55:04.685Z,61.20
2023-03-16T22:57:33.312Z,61.37
2023-03-16T23:00:11.497Z,61.84
2023-03-16T23:02:41.132Z,60.42
2023-03-16T23:05:21.757Z,61.46
2023-03-16T23:07:50.946Z,56.84
2023-03-16T23:10:23.269Z,58.09
2023-03-16T23:12:52.874Z,60.12
2023-03-16T23:15:27.068Z,61.52
2023-03-16T23:17:55.765Z,61.91
2023-03-16T23:20:29.597Z,61.79
2023-03-16T23:22:59.146Z,60.77
2023-03-16T23:25:27.250Z,59.34
2023-03-16T23:27:55.700Z,61.17
2023-03-16T23:30:26.005Z,61.50
2023-03-16T23:32:55.559Z,61.53
2023-03-16T23:35:27.676Z,58.72
2023-03-16T23:37:56.427Z,61.44
2023-03-16T23:40:27.527Z,61.72
2023-03-16T23:42:57.578Z,61.75
2023-03-16T23:45:35.306Z,63.22
2023-03-16T23:48:06.846Z,61.05
2023-03-16T23:50:36.980Z,61.45
2023-03-16T23:53:11.467Z,61.83
2023-03-16T23:55:40.803Z,62.35
2023-03-16T23:58:09.746Z,60.80
